sensor_id;sensor_type;location;lat;lon;timestamp;P1;durP1;ratioP1;P2;durP2;ratioP2
3895;SDS011;1963;48.804;8.358;2022-07-23T00:02:10;8.10;;;7.30;;
3895;SDS011;1963;48.804;8.358;2022-07-23T00:04:39;9.13;;;6.67;;
3895;SDS011;1963;48.804;8.358;2022-07-23T00:07:07;7.43;;;5.87;;
3895;SDS011;1963;48.804;8.358;2022-07-23T00:09:35;8.07;;;6.37;;
3895;SDS011;1963;48.804;8.358;2022-07-23T00:12:03;11.07;;;6.40;;
3895;SDS011;1963;48.804;8.358;2022-07-23T00:14:32;7.17;;;6.43;;
3895;SDS011;1963;48.804;8.358;2022-07-23T00:16:59;8.20;;;7.40;;
3895;SDS011;1963;48.804;8.358;2022-07-23T00:19:27;9.50;;;6.60;;
3895;SDS011;1963;48.804;8.358;2022-07-23T00:21:57;7.00;;;6.23;;
3895;SDS011;1963;48.804;8.358;2022-07-23T00:24:25;8.93;;;7.70;;
3895;SDS011;1963;48.804;8.358;2022-07-23T00:26:53;8.83;;;7.40;;
3895;SDS011;1963;48.804;8.358;2022-07-23T00:29:20;8.47;;;7.53;;
3895;SDS011;1963;48.804;8.358;2022-07-23T00:31:48;7.40;;;6.60;;
3895;SDS011;1963;48.804;8.358;2022-07-23T00:34:16;7.63;;;6.67;;
3895;SDS011;1963;48.804;8.358;2022-07-23T00:36:44;9.67;;;7.10;;
3895;SDS011;1963;48.804;8.358;2022-07-23T00:39:13;11.20;;;6.83;;
3895;SDS011;1963;48.804;8.358;2022-07-23T00:41:41;7.30;;;6.60;;
3895;SDS011;1963;48.804;8.358;2022-07-23T00:44:18;7.33;;;6.10;;
3895;SDS011;1963;48.804;8.358;2022-07-23T00:46:47;8.93;;;6.97;;
3895;SDS011;1963;48.804;8.358;2022-07-23T00:49:19;12.30;;;7.03;;
3895;SDS011;1963;48.804;8.358;2022-07-23T00:51:47;8.17;;;7.30;;
3895;SDS011;1963;48.804;8.358;2022-07-23T00:54:17;8.23;;;7.03;;
3895;SDS011;1963;48.804;8.358;2022-07-23T00:56:46;8.37;;;7.00;;
3895;SDS011;1963;48.804;8.358;2022-07-23T00:59:14;12.27;;;6.90;;
3895;SDS011;1963;48.804;8.358;2022-07-23T01:01:42;9.43;;;7.07;;
3895;SDS011;1963;48.804;8.358;2022-07-23T01:04:13;10.23;;;7.77;;
3895;SDS011;1963;48.804;8.358;2022-07-23T01:06:42;8.93;;;6.87;;
3895;SDS011;1963;48.804;8.358;2022-07-23T01:09:11;12.70;;;7.37;;
3895;SDS011;1963;48.804;8.358;2022-07-23T01:11:40;8.33;;;7.07;;
3895;SDS011;1963;48.804;8.358;2022-07-23T01:14:12;9.07;;;7.10;;
3895;SDS011;1963;48.804;8.358;2022-07-23T01:16:41;9.50;;;6.90;;
3895;SDS011;1963;48.804;8.358;2022-07-23T01:19:11;7.07;;;6.40;;
3895;SDS011;1963;48.804;8.358;2022-07-23T01:21:39;7.70;;;6.77;;
3895;SDS011;1963;48.804;8.358;2022-07-23T01:24:10;8.60;;;7.70;;
3895;SDS011;1963;48.804;8.358;2022-07-23T01:26:40;8.57;;;6.90;;
3895;SDS011;1963;48.804;8.358;2022-07-23T01:29:10;9.63;;;7.97;;
3895;SDS011;1963;48.804;8.358;2022-07-23T01:31:38;9.87;;;6.63;;
3895;SDS011;1963;48.804;8.358;2022-07-23T01:34:07;12.80;;;6.80;;
3895;SDS011;1963;48.804;8.358;2022-07-23T01:36:35;9.30;;;6.93;;
3895;SDS011;1963;48.804;8.358;2022-07-23T01:39:04;12.23;;;6.40;;
3895;SDS011;1963;48.804;8.358;2022-07-23T01:41:34;8.17;;;6.63;;
3895;SDS011;1963;48.804;8.358;2022-07-23T01:44:02;8.40;;;6.70;;
3895;SDS011;1963;48.804;8.358;2022-07-23T01:46:30;9.63;;;7.00;;
3895;SDS011;1963;48.804;8.358;2022-07-23T01:48:58;11.30;;;7.17;;
3895;SDS011;1963;48.804;8.358;2022-07-23T01:51:26;9.33;;;6.60;;
3895;SDS011;1963;48.804;8.358;2022-07-23T01:53:54;6.80;;;6.10;;
3895;SDS011;1963;48.804;8.358;2022-07-23T01:56:22;7.93;;;6.97;;
3895;SDS011;1963;48.804;8.358;2022-07-23T01:58:52;7.77;;;6.97;;
3895;SDS011;1963;48.804;8.358;2022-07-23T02:01:19;9.30;;;7.20;;
3895;SDS011;1963;48.804;8.358;2022-07-23T02:03:47;8.77;;;6.57;;
3895;SDS011;1963;48.804;8.358;2022-07-23T02:06:15;7.97;;;6.40;;
3895;SDS011;1963;48.804;8.358;2022-07-23T02:08:43;7.27;;;6.57;;
3895;SDS011;1963;48.804;8.358;2022-07-23T02:11:11;9.20;;;7.10;;
3895;SDS011;1963;48.804;8.358;2022-07-23T02:13:39;17.37;;;7.20;;
3895;SDS011;1963;48.804;8.358;2022-07-23T02:16:08;9.40;;;7.27;;
3895;SDS011;1963;48.804;8.358;2022-07-23T02:18:36;14.73;;;7.33;;
3895;SDS011;1963;48.804;8.358;2022-07-23T02:21:04;9.63;;;6.60;;
3895;SDS011;1963;48.804;8.358;2022-07-23T02:23:34;7.80;;;6.87;;
3895;SDS011;1963;48.804;8.358;2022-07-23T02:34:46;10.53;;;7.47;;
3895;SDS011;1963;48.804;8.358;2022-07-23T02:37:14;12.90;;;7.00;;
3895;SDS011;1963;48.804;8.358;2022-07-23T02:39:42;9.53;;;6.90;;
3895;SDS011;1963;48.804;8.358;2022-07-23T02:42:11;10.23;;;7.10;;
3895;SDS011;1963;48.804;8.358;2022-07-23T02:44:38;10.23;;;7.60;;
3895;SDS011;1963;48.804;8.358;2022-07-23T02:47:06;9.47;;;6.90;;
3895;SDS011;1963;48.804;8.358;2022-07-23T02:49:34;7.60;;;6.50;;
3895;SDS011;1963;48.804;8.358;2022-07-23T02:52:04;7.40;;;6.70;;
3895;SDS011;1963;48.804;8.358;2022-07-23T02:54:32;8.23;;;6.60;;
3895;SDS011;1963;48.804;8.358;2022-07-23T02:57:01;15.03;;;7.80;;
3895;SDS011;1963;48.804;8.358;2022-07-23T02:59:29;12.40;;;7.10;;
3895;SDS011;1963;48.804;8.358;2022-07-23T03:01:57;7.20;;;6.50;;
3895;SDS011;1963;48.804;8.358;2022-07-23T03:04:27;13.60;;;7.23;;
3895;SDS011;1963;48.804;8.358;2022-07-23T03:06:56;8.40;;;6.60;;
3895;SDS011;1963;48.804;8.358;2022-07-23T03:09:25;7.90;;;7.10;;
3895;SDS011;1963;48.804;8.358;2022-07-23T03:11:52;10.10;;;6.83;;
3895;SDS011;1963;48.804;8.358;2022-07-23T03:14:20;9.17;;;6.57;;
3895;SDS011;1963;48.804;8.358;2022-07-23T03:16:48;6.77;;;6.07;;
3895;SDS011;1963;48.804;8.358;2022-07-23T03:19:16;10.70;;;6.20;;
3895;SDS011;1963;48.804;8.358;2022-07-23T03:21:44;7.67;;;6.50;;
3895;SDS011;1963;48.804;8.358;2022-07-23T03:24:12;8.20;;;6.60;;
3895;SDS011;1963;48.804;8.358;2022-07-23T03:26:41;7.70;;;6.90;;
3895;SDS011;1963;48.804;8.358;2022-07-23T03:29:10;10.70;;;5.97;;
3895;SDS011;1963;48.804;8.358;2022-07-23T03:31:38;8.93;;;6.43;;
3895;SDS011;1963;48.804;8.358;2022-07-23T03:34:07;8.57;;;6.13;;
3895;SDS011;1963;48.804;8.358;2022-07-23T03:36:35;8.37;;;6.57;;
3895;SDS011;1963;48.804;8.358;2022-07-23T03:39:04;8.27;;;6.80;;
3895;SDS011;1963;48.804;8.358;2022-07-23T03:41:38;10.27;;;6.97;;
3895;SDS011;1963;48.804;8.358;2022-07-23T03:55:16;10.23;;;7.23;;
3895;SDS011;1963;48.804;8.358;2022-07-23T03:57:44;6.80;;;5.70;;
3895;SDS011;1963;48.804;8.358;2022-07-23T04:00:12;7.40;;;6.60;;
3895;SDS011;1963;48.804;8.358;2022-07-23T04:02:41;8.50;;;6.30;;
3895;SDS011;1963;48.804;8.358;2022-07-23T04:05:09;8.90;;;6.27;;
3895;SDS011;1963;48.804;8.358;2022-07-23T04:07:37;8.00;;;6.87;;
3895;SDS011;1963;48.804;8.358;2022-07-23T04:10:05;7.23;;;6.47;;
3895;SDS011;1963;48.804;8.358;2022-07-23T04:12:34;6.83;;;6.13;;
3895;SDS011;1963;48.804;8.358;2022-07-23T04:15:03;8.23;;;5.87;;
3895;SDS011;1963;48.804;8.358;2022-07-23T04:17:31;11.83;;;7.17;;
3895;SDS011;1963;48.804;8.358;2022-07-23T04:19:59;6.97;;;6.27;;
3895;SDS011;1963;48.804;8.358;2022-07-23T04:22:27;14.20;;;6.70;;
3895;SDS011;1963;48.804;8.358;2022-07-23T04:24:55;7.30;;;5.77;;
3895;SDS011;1963;48.804;8.358;2022-07-23T04:27:23;9.33;;;6.20;;
3895;SDS011;1963;48.804;8.358;2022-07-23T04:29:52;7.37;;;6.53;;
3895;SDS011;1963;48.804;8.358;2022-07-23T04:32:20;8.70;;;6.97;;
3895;SDS011;1963;48.804;8.358;2022-07-23T04:34:48;8.30;;;5.97;;
3895;SDS011;1963;48.804;8.358;2022-07-23T04:37:16;6.97;;;5.47;;
3895;SDS011;1963;48.804;8.358;2022-07-23T04:39:44;9.33;;;5.90;;
3895;SDS011;1963;48.804;8.358;2022-07-23T04:42:12;7.67;;;5.70;;
3895;SDS011;1963;48.804;8.358;2022-07-23T04:44:39;6.70;;;5.47;;
3895;SDS011;1963;48.804;8.358;2022-07-23T04:47:09;7.07;;;6.07;;
3895;SDS011;1963;48.804;8.358;2022-07-23T04:49:38;8.20;;;5.93;;
3895;SDS011;1963;48.804;8.358;2022-07-23T04:52:06;8.63;;;6.70;;
3895;SDS011;1963;48.804;8.358;2022-07-23T04:54:34;12.80;;;6.23;;
3895;SDS011;1963;48.804;8.358;2022-07-23T04:57:01;9.57;;;6.30;;
3895;SDS011;1963;48.804;8.358;2022-07-23T04:59:30;8.17;;;6.70;;
3895;SDS011;1963;48.804;8.358;2022-07-23T05:01:58;6.80;;;6.00;;
3895;SDS011;1963;48.804;8.358;2022-07-23T05:04:27;7.27;;;5.60;;
3895;SDS011;1963;48.804;8.358;2022-07-23T05:06:57;5.97;;;5.27;;
3895;SDS011;1963;48.804;8.358;2022-07-23T05:09:25;10.20;;;6.30;;
3895;SDS011;1963;48.804;8.358;2022-07-23T05:11:53;7.70;;;6.17;;
3895;SDS011;1963;48.804;8.358;2022-07-23T05:14:21;6.80;;;5.70;;
3895;SDS011;1963;48.804;8.358;2022-07-23T05:16:49;9.77;;;6.10;;
3895;SDS011;1963;48.804;8.358;2022-07-23T05:19:16;9.80;;;6.50;;
3895;SDS011;1963;48.804;8.358;2022-07-23T05:21:51;8.70;;;6.60;;
3895;SDS011;1963;48.804;8.358;2022-07-23T05:24:19;9.20;;;6.03;;
3895;SDS011;1963;48.804;8.358;2022-07-23T05:26:47;10.63;;;6.03;;
3895;SDS011;1963;48.804;8.358;2022-07-23T05:29:15;12.00;;;6.33;;
3895;SDS011;1963;48.804;8.358;2022-07-23T05:31:43;7.10;;;6.30;;
3895;SDS011;1963;48.804;8.358;2022-07-23T05:34:11;7.13;;;5.73;;
3895;SDS011;1963;48.804;8.358;2022-07-23T05:36:43;7.23;;;5.87;;
3895;SDS011;1963;48.804;8.358;2022-07-23T05:39:12;6.97;;;6.23;;
3895;SDS011;1963;48.804;8.358;2022-07-23T05:41:40;6.30;;;5.70;;
3895;SDS011;1963;48.804;8.358;2022-07-23T05:44:08;8.10;;;5.03;;
3895;SDS011;1963;48.804;8.358;2022-07-23T05:46:36;7.87;;;6.03;;
3895;SDS011;1963;48.804;8.358;2022-07-23T05:49:04;6.73;;;5.80;;
3895;SDS011;1963;48.804;8.358;2022-07-23T05:51:32;8.10;;;5.27;;
3895;SDS011;1963;48.804;8.358;2022-07-23T05:54:00;6.57;;;5.67;;
3895;SDS011;1963;48.804;8.358;2022-07-23T05:56:29;7.03;;;5.90;;
3895;SDS011;1963;48.804;8.358;2022-07-23T05:58:57;6.57;;;5.50;;
3895;SDS011;1963;48.804;8.358;2022-07-23T06:01:26;7.23;;;6.50;;
3895;SDS011;1963;48.804;8.358;2022-07-23T06:03:54;10.07;;;7.10;;
3895;SDS011;1963;48.804;8.358;2022-07-23T06:06:22;15.27;;;7.30;;
3895;SDS011;1963;48.804;8.358;2022-07-23T06:08:49;14.17;;;7.87;;
3895;SDS011;1963;48.804;8.358;2022-07-23T06:11:17;15.33;;;7.93;;
3895;SDS011;1963;48.804;8.358;2022-07-23T06:13:47;24.20;;;9.00;;
3895;SDS011;1963;48.804;8.358;2022-07-23T06:16:14;17.57;;;8.73;;
3895;SDS011;1963;48.804;8.358;2022-07-23T06:18:43;23.93;;;8.70;;
3895;SDS011;1963;48.804;8.358;2022-07-23T06:21:10;17.20;;;8.40;;
3895;SDS011;1963;48.804;8.358;2022-07-23T06:23:58;18.83;;;8.23;;
3895;SDS011;1963;48.804;8.358;2022-07-23T06:26:26;19.03;;;10.03;;
3895;SDS011;1963;48.804;8.358;2022-07-23T06:28:55;12.33;;;7.93;;
3895;SDS011;1963;48.804;8.358;2022-07-23T06:31:29;14.50;;;8.90;;
3895;SDS011;1963;48.804;8.358;2022-07-23T06:33:57;18.40;;;9.20;;
3895;SDS011;1963;48.804;8.358;2022-07-23T06:36:25;15.33;;;9.00;;
3895;SDS011;1963;48.804;8.358;2022-07-23T06:38:53;16.70;;;8.53;;
3895;SDS011;1963;48.804;8.358;2022-07-23T06:41:21;11.77;;;8.70;;
3895;SDS011;1963;48.804;8.358;2022-07-23T06:43:49;12.30;;;8.67;;
3895;SDS011;1963;48.804;8.358;2022-07-23T06:46:19;11.20;;;8.10;;
3895;SDS011;1963;48.804;8.358;2022-07-23T06:48:47;13.40;;;7.43;;
3895;SDS011;1963;48.804;8.358;2022-07-23T06:51:16;11.97;;;7.80;;
3895;SDS011;1963;48.804;8.358;2022-07-23T06:53:44;8.53;;;7.20;;
3895;SDS011;1963;48.804;8.358;2022-07-23T06:56:12;12.13;;;8.40;;
3895;SDS011;1963;48.804;8.358;2022-07-23T06:58:40;11.00;;;8.80;;
3895;SDS011;1963;48.804;8.358;2022-07-23T07:01:08;10.43;;;8.87;;
3895;SDS011;1963;48.804;8.358;2022-07-23T07:03:38;10.97;;;8.17;;
3895;SDS011;1963;48.804;8.358;2022-07-23T07:06:05;8.30;;;6.90;;
3895;SDS011;1963;48.804;8.358;2022-07-23T07:08:33;11.57;;;8.23;;
3895;SDS011;1963;48.804;8.358;2022-07-23T07:11:01;9.90;;;8.00;;
3895;SDS011;1963;48.804;8.358;2022-07-23T07:13:30;9.23;;;7.40;;
3895;SDS011;1963;48.804;8.358;2022-07-23T07:15:57;9.17;;;7.27;;
3895;SDS011;1963;48.804;8.358;2022-07-23T07:18:25;9.87;;;7.73;;
3895;SDS011;1963;48.804;8.358;2022-07-23T07:20:55;8.67;;;6.63;;
3895;SDS011;1963;48.804;8.358;2022-07-23T07:23:23;6.77;;;5.93;;
3895;SDS011;1963;48.804;8.358;2022-07-23T07:25:51;11.63;;;6.80;;
3895;SDS011;1963;48.804;8.358;2022-07-23T07:28:19;13.93;;;7.97;;
3895;SDS011;1963;48.804;8.358;2022-07-23T07:30:47;10.93;;;6.93;;
3895;SDS011;1963;48.804;8.358;2022-07-23T07:33:15;12.90;;;7.30;;
3895;SDS011;1963;48.804;8.358;2022-07-23T07:35:43;9.67;;;7.47;;
3895;SDS011;1963;48.804;8.358;2022-07-23T07:38:14;12.73;;;7.90;;
3895;SDS011;1963;48.804;8.358;2022-07-23T07:40:42;7.90;;;7.10;;
3895;SDS011;1963;48.804;8.358;2022-07-23T07:43:10;8.70;;;6.70;;
3895;SDS011;1963;48.804;8.358;2022-07-23T07:45:38;8.50;;;7.40;;
3895;SDS011;1963;48.804;8.358;2022-07-23T07:48:06;9.87;;;7.07;;
3895;SDS011;1963;48.804;8.358;2022-07-23T07:50:33;7.73;;;6.93;;
3895;SDS011;1963;48.804;8.358;2022-07-23T07:53:01;12.10;;;7.40;;
3895;SDS011;1963;48.804;8.358;2022-07-23T07:55:31;9.77;;;8.03;;
3895;SDS011;1963;48.804;8.358;2022-07-23T07:57:59;10.07;;;6.60;;
3895;SDS011;1963;48.804;8.358;2022-07-23T08:00:27;8.37;;;6.60;;
3895;SDS011;1963;48.804;8.358;2022-07-23T08:02:55;11.87;;;6.23;;
3895;SDS011;1963;48.804;8.358;2022-07-23T08:05:25;6.83;;;6.07;;
3895;SDS011;1963;48.804;8.358;2022-07-23T08:07:55;9.03;;;6.83;;
3895;SDS011;1963;48.804;8.358;2022-07-23T08:10:23;8.17;;;7.43;;
3895;SDS011;1963;48.804;8.358;2022-07-23T08:12:53;8.10;;;7.30;;
3895;SDS011;1963;48.804;8.358;2022-07-23T08:15:23;7.23;;;6.23;;
3895;SDS011;1963;48.804;8.358;2022-07-23T08:17:52;8.30;;;6.10;;
3895;SDS011;1963;48.804;8.358;2022-07-23T08:20:21;7.43;;;6.60;;
3895;SDS011;1963;48.804;8.358;2022-07-23T08:22:51;13.03;;;6.13;;
3895;SDS011;1963;48.804;8.358;2022-07-23T08:25:21;11.13;;;6.90;;
3895;SDS011;1963;48.804;8.358;2022-07-23T08:27:52;9.77;;;6.00;;
3895;SDS011;1963;48.804;8.358;2022-07-23T08:30:21;9.60;;;5.83;;
3895;SDS011;1963;48.804;8.358;2022-07-23T08:32:50;7.70;;;6.33;;
3895;SDS011;1963;48.804;8.358;2022-07-23T08:35:24;7.80;;;5.30;;
3895;SDS011;1963;48.804;8.358;2022-07-23T08:37:53;6.00;;;5.40;;
3895;SDS011;1963;48.804;8.358;2022-07-23T08:40:22;6.03;;;5.13;;
3895;SDS011;1963;48.804;8.358;2022-07-23T08:42:50;9.63;;;5.07;;
3895;SDS011;1963;48.804;8.358;2022-07-23T08:45:21;6.10;;;5.10;;
3895;SDS011;1963;48.804;8.358;2022-07-23T08:47:51;7.50;;;5.70;;
3895;SDS011;1963;48.804;8.358;2022-07-23T08:50:20;6.10;;;4.67;;
3895;SDS011;1963;48.804;8.358;2022-07-23T08:52:49;6.50;;;5.60;;
3895;SDS011;1963;48.804;8.358;2022-07-23T08:55:20;9.23;;;5.30;;
3895;SDS011;1963;48.804;8.358;2022-07-23T08:57:50;5.63;;;4.80;;
3895;SDS011;1963;48.804;8.358;2022-07-23T09:00:20;6.47;;;5.20;;
3895;SDS011;1963;48.804;8.358;2022-07-23T09:02:49;5.67;;;5.17;;
3895;SDS011;1963;48.804;8.358;2022-07-23T09:05:18;6.40;;;5.80;;
3895;SDS011;1963;48.804;8.358;2022-07-23T09:08:06;5.33;;;4.83;;
3895;SDS011;1963;48.804;8.358;2022-07-23T09:10:44;6.77;;;5.53;;
3895;SDS011;1963;48.804;8.358;2022-07-23T09:13:27;6.30;;;5.70;;
3895;SDS011;1963;48.804;8.358;2022-07-23T09:16:05;6.93;;;5.70;;
3895;SDS011;1963;48.804;8.358;2022-07-23T09:18:36;5.13;;;4.70;;
3895;SDS011;1963;48.804;8.358;2022-07-23T09:21:13;4.83;;;4.40;;
3895;SDS011;1963;48.804;8.358;2022-07-23T09:23:43;5.33;;;4.37;;
3895;SDS011;1963;48.804;8.358;2022-07-23T09:26:26;4.53;;;4.13;;
3895;SDS011;1963;48.804;8.358;2022-07-23T09:29:00;6.23;;;4.57;;
3895;SDS011;1963;48.804;8.358;2022-07-23T09:31:33;13.17;;;5.00;;
3895;SDS011;1963;48.804;8.358;2022-07-23T09:34:17;5.77;;;4.17;;
3895;SDS011;1963;48.804;8.358;2022-07-23T09:36:49;5.90;;;4.80;;
3895;SDS011;1963;48.804;8.358;2022-07-23T09:39:26;5.10;;;4.60;;
3895;SDS011;1963;48.804;8.358;2022-07-23T09:41:58;4.43;;;4.00;;
3895;SDS011;1963;48.804;8.358;2022-07-23T09:44:40;5.30;;;4.30;;
3895;SDS011;1963;48.804;8.358;2022-07-23T09:47:10;9.27;;;4.50;;
3895;SDS011;1963;48.804;8.358;2022-07-23T09:49:38;3.60;;;3.30;;
3895;SDS011;1963;48.804;8.358;2022-07-23T09:52:06;4.60;;;3.73;;
3895;SDS011;1963;48.804;8.358;2022-07-23T09:54:35;5.90;;;4.37;;
3895;SDS011;1963;48.804;8.358;2022-07-23T09:57:07;10.97;;;4.57;;
3895;SDS011;1963;48.804;8.358;2022-07-23T09:59:40;5.63;;;4.00;;
3895;SDS011;1963;48.804;8.358;2022-07-23T10:02:11;4.10;;;3.70;;
3895;SDS011;1963;48.804;8.358;2022-07-23T10:04:41;4.83;;;4.20;;
3895;SDS011;1963;48.804;8.358;2022-07-23T10:07:10;4.03;;;3.63;;
3895;SDS011;1963;48.804;8.358;2022-07-23T10:09:39;4.50;;;4.13;;
3895;SDS011;1963;48.804;8.358;2022-07-23T10:12:09;3.33;;;3.10;;
3895;SDS011;1963;48.804;8.358;2022-07-23T10:14:49;4.70;;;4.23;;
3895;SDS011;1963;48.804;8.358;2022-07-23T10:17:18;4.50;;;4.10;;
3895;SDS011;1963;48.804;8.358;2022-07-23T10:19:46;4.50;;;3.53;;
3895;SDS011;1963;48.804;8.358;2022-07-23T10:22:15;7.00;;;4.67;;
3895;SDS011;1963;48.804;8.358;2022-07-23T10:24:49;5.50;;;4.10;;
3895;SDS011;1963;48.804;8.358;2022-07-23T10:30:20;4.73;;;3.90;;
3895;SDS011;1963;48.804;8.358;2022-07-23T10:33:00;4.40;;;4.00;;
3895;SDS011;1963;48.804;8.358;2022-07-23T10:35:48;4.40;;;4.00;;
3895;SDS011;1963;48.804;8.358;2022-07-23T10:38:21;3.63;;;3.33;;
3895;SDS011;1963;48.804;8.358;2022-07-23T10:40:56;8.70;;;4.20;;
3895;SDS011;1963;48.804;8.358;2022-07-23T10:43:25;4.33;;;4.00;;
3895;SDS011;1963;48.804;8.358;2022-07-23T10:45:54;4.90;;;4.00;;
3895;SDS011;1963;48.804;8.358;2022-07-23T10:48:24;4.40;;;4.03;;
3895;SDS011;1963;48.804;8.358;2022-07-23T10:51:06;5.40;;;4.03;;
3895;SDS011;1963;48.804;8.358;2022-07-23T10:53:55;6.00;;;3.93;;
3895;SDS011;1963;48.804;8.358;2022-07-23T11:02:37;5.20;;;4.53;;
3895;SDS011;1963;48.804;8.358;2022-07-23T11:05:08;7.43;;;3.80;;
3895;SDS011;1963;48.804;8.358;2022-07-23T11:10:45;5.07;;;4.57;;
3895;SDS011;1963;48.804;8.358;2022-07-23T11:13:27;5.23;;;4.10;;
3895;SDS011;1963;48.804;8.358;2022-07-23T11:16:03;4.83;;;4.43;;
3895;SDS011;1963;48.804;8.358;2022-07-23T11:21:45;4.33;;;3.93;;
3895;SDS011;1963;48.804;8.358;2022-07-23T11:24:15;8.07;;;5.17;;
3895;SDS011;1963;48.804;8.358;2022-07-23T11:26:48;5.70;;;3.90;;
3895;SDS011;1963;48.804;8.358;2022-07-23T11:35:21;4.73;;;4.33;;
3895;SDS011;1963;48.804;8.358;2022-07-23T11:37:51;5.47;;;4.87;;
3895;SDS011;1963;48.804;8.358;2022-07-23T11:40:24;5.07;;;4.57;;
3895;SDS011;1963;48.804;8.358;2022-07-23T11:42:54;6.17;;;4.30;;
3895;SDS011;1963;48.804;8.358;2022-07-23T11:45:26;6.40;;;5.10;;
3895;SDS011;1963;48.804;8.358;2022-07-23T11:47:58;6.83;;;4.73;;
3895;SDS011;1963;48.804;8.358;2022-07-23T11:50:26;6.50;;;4.23;;
3895;SDS011;1963;48.804;8.358;2022-07-23T11:52:55;5.70;;;5.07;;
3895;SDS011;1963;48.804;8.358;2022-07-23T11:55:26;5.33;;;4.90;;
3895;SDS011;1963;48.804;8.358;2022-07-23T11:57:54;5.20;;;4.70;;
3895;SDS011;1963;48.804;8.358;2022-07-23T12:00:26;8.30;;;5.10;;
3895;SDS011;1963;48.804;8.358;2022-07-23T12:02:55;6.07;;;4.77;;
3895;SDS011;1963;48.804;8.358;2022-07-23T12:05:27;4.57;;;4.17;;
3895;SDS011;1963;48.804;8.358;2022-07-23T12:07:58;5.10;;;4.60;;
3895;SDS011;1963;48.804;8.358;2022-07-23T12:10:27;4.57;;;4.17;;
3895;SDS011;1963;48.804;8.358;2022-07-23T12:12:56;5.47;;;4.70;;
3895;SDS011;1963;48.804;8.358;2022-07-23T12:15:29;6.13;;;4.43;;
3895;SDS011;1963;48.804;8.358;2022-07-23T12:17:59;5.20;;;4.70;;
3895;SDS011;1963;48.804;8.358;2022-07-23T12:20:31;6.67;;;5.20;;
3895;SDS011;1963;48.804;8.358;2022-07-23T12:23:02;5.20;;;4.70;;
3895;SDS011;1963;48.804;8.358;2022-07-23T12:25:32;5.27;;;4.73;;
3895;SDS011;1963;48.804;8.358;2022-07-23T12:28:03;6.00;;;5.40;;
3895;SDS011;1963;48.804;8.358;2022-07-23T12:30:33;6.10;;;4.80;;
3895;SDS011;1963;48.804;8.358;2022-07-23T12:33:05;5.40;;;4.90;;
3895;SDS011;1963;48.804;8.358;2022-07-23T12:35:35;9.00;;;5.53;;
3895;SDS011;1963;48.804;8.358;2022-07-23T12:38:06;5.03;;;4.53;;
3895;SDS011;1963;48.804;8.358;2022-07-23T12:40:36;4.93;;;4.53;;
3895;SDS011;1963;48.804;8.358;2022-07-23T12:43:09;5.33;;;4.70;;
3895;SDS011;1963;48.804;8.358;2022-07-23T12:45:42;6.20;;;5.13;;
3895;SDS011;1963;48.804;8.358;2022-07-23T12:48:16;5.57;;;4.90;;
3895;SDS011;1963;48.804;8.358;2022-07-23T12:50:51;5.50;;;4.97;;
3895;SDS011;1963;48.804;8.358;2022-07-23T12:53:26;7.70;;;5.60;;
3895;SDS011;1963;48.804;8.358;2022-07-23T12:56:00;6.80;;;4.70;;
3895;SDS011;1963;48.804;8.358;2022-07-23T12:58:44;5.87;;;5.27;;
3895;SDS011;1963;48.804;8.358;2022-07-23T13:01:29;6.03;;;5.53;;
3895;SDS011;1963;48.804;8.358;2022-07-23T13:04:00;8.80;;;5.67;;
3895;SDS011;1963;48.804;8.358;2022-07-23T13:06:39;11.70;;;6.00;;
3895;SDS011;1963;48.804;8.358;2022-07-23T13:09:11;8.90;;;5.93;;
3895;SDS011;1963;48.804;8.358;2022-07-23T13:11:41;6.90;;;5.93;;
3895;SDS011;1963;48.804;8.358;2022-07-23T13:14:13;6.60;;;5.57;;
3895;SDS011;1963;48.804;8.358;2022-07-23T13:16:41;6.43;;;5.77;;
3895;SDS011;1963;48.804;8.358;2022-07-23T13:19:11;6.60;;;5.57;;
3895;SDS011;1963;48.804;8.358;2022-07-23T13:21:40;6.40;;;5.53;;
3895;SDS011;1963;48.804;8.358;2022-07-23T13:24:11;6.47;;;5.83;;
3895;SDS011;1963;48.804;8.358;2022-07-23T13:26:40;6.30;;;5.20;;
3895;SDS011;1963;48.804;8.358;2022-07-23T13:29:09;6.13;;;5.57;;
3895;SDS011;1963;48.804;8.358;2022-07-23T13:31:37;8.70;;;6.37;;
3895;SDS011;1963;48.804;8.358;2022-07-23T13:34:07;6.80;;;5.90;;
3895;SDS011;1963;48.804;8.358;2022-07-23T13:36:35;6.40;;;5.67;;
3895;SDS011;1963;48.804;8.358;2022-07-23T13:39:04;5.77;;;5.20;;
3895;SDS011;1963;48.804;8.358;2022-07-23T13:41:36;5.90;;;5.40;;
3895;SDS011;1963;48.804;8.358;2022-07-23T13:44:04;6.10;;;5.60;;
3895;SDS011;1963;48.804;8.358;2022-07-23T13:46:33;6.23;;;5.50;;
3895;SDS011;1963;48.804;8.358;2022-07-23T13:49:01;7.33;;;5.77;;
3895;SDS011;1963;48.804;8.358;2022-07-23T13:51:34;5.90;;;5.40;;
3895;SDS011;1963;48.804;8.358;2022-07-23T13:54:05;6.87;;;6.27;;
3895;SDS011;1963;48.804;8.358;2022-07-23T13:56:34;6.37;;;5.50;;
3895;SDS011;1963;48.804;8.358;2022-07-23T13:59:03;6.03;;;4.90;;
3895;SDS011;1963;48.804;8.358;2022-07-23T14:01:32;5.43;;;4.83;;
3895;SDS011;1963;48.804;8.358;2022-07-23T14:04:15;6.30;;;5.70;;
3895;SDS011;1963;48.804;8.358;2022-07-23T14:06:44;6.47;;;5.83;;
3895;SDS011;1963;48.804;8.358;2022-07-23T14:09:18;5.93;;;5.40;;
3895;SDS011;1963;48.804;8.358;2022-07-23T14:11:46;6.33;;;5.70;;
3895;SDS011;1963;48.804;8.358;2022-07-23T14:14:15;12.43;;;6.00;;
3895;SDS011;1963;48.804;8.358;2022-07-23T14:16:43;13.40;;;5.20;;
3895;SDS011;1963;48.804;8.358;2022-07-23T14:19:12;6.47;;;4.77;;
3895;SDS011;1963;48.804;8.358;2022-07-23T14:21:40;6.30;;;5.73;;
3895;SDS011;1963;48.804;8.358;2022-07-23T14:24:08;7.80;;;6.17;;
3895;SDS011;1963;48.804;8.358;2022-07-23T14:26:36;6.50;;;5.50;;
3895;SDS011;1963;48.804;8.358;2022-07-23T14:29:04;7.27;;;5.90;;
3895;SDS011;1963;48.804;8.358;2022-07-23T14:31:35;8.70;;;6.33;;
3895;SDS011;1963;48.804;8.358;2022-07-23T14:34:03;10.33;;;6.00;;
3895;SDS011;1963;48.804;8.358;2022-07-23T14:36:32;9.73;;;6.40;;
3895;SDS011;1963;48.804;8.358;2022-07-23T14:39:00;9.87;;;5.60;;
3895;SDS011;1963;48.804;8.358;2022-07-23T14:41:29;5.60;;;5.10;;
3895;SDS011;1963;48.804;8.358;2022-07-23T14:43:57;5.80;;;5.30;;
3895;SDS011;1963;48.804;8.358;2022-07-23T14:46:25;7.10;;;5.43;;
3895;SDS011;1963;48.804;8.358;2022-07-23T14:48:56;6.23;;;5.40;;
3895;SDS011;1963;48.804;8.358;2022-07-23T14:51:24;6.13;;;5.47;;
3895;SDS011;1963;48.804;8.358;2022-07-23T14:53:52;6.30;;;5.60;;
3895;SDS011;1963;48.804;8.358;2022-07-23T14:56:20;6.13;;;5.53;;
3895;SDS011;1963;48.804;8.358;2022-07-23T14:58:48;6.10;;;5.50;;
3895;SDS011;1963;48.804;8.358;2022-07-23T15:01:16;8.40;;;5.50;;
3895;SDS011;1963;48.804;8.358;2022-07-23T15:03:44;6.50;;;5.90;;
3895;SDS011;1963;48.804;8.358;2022-07-23T15:06:14;6.00;;;5.43;;
3895;SDS011;1963;48.804;8.358;2022-07-23T15:08:43;6.20;;;5.60;;
3895;SDS011;1963;48.804;8.358;2022-07-23T15:11:13;10.97;;;6.20;;
3895;SDS011;1963;48.804;8.358;2022-07-23T15:13:41;8.97;;;5.87;;
3895;SDS011;1963;48.804;8.358;2022-07-23T15:16:09;7.73;;;5.53;;
3895;SDS011;1963;48.804;8.358;2022-07-23T15:18:41;6.03;;;5.43;;
3895;SDS011;1963;48.804;8.358;2022-07-23T15:21:09;5.50;;;5.00;;
3895;SDS011;1963;48.804;8.358;2022-07-23T15:23:39;6.20;;;5.60;;
3895;SDS011;1963;48.804;8.358;2022-07-23T15:26:07;13.43;;;6.10;;
3895;SDS011;1963;48.804;8.358;2022-07-23T15:28:35;6.57;;;5.90;;
3895;SDS011;1963;48.804;8.358;2022-07-23T15:31:07;8.00;;;5.77;;
3895;SDS011;1963;48.804;8.358;2022-07-23T15:33:35;6.93;;;6.10;;
3895;SDS011;1963;48.804;8.358;2022-07-23T15:36:03;15.00;;;5.93;;
3895;SDS011;1963;48.804;8.358;2022-07-23T15:38:32;10.47;;;5.80;;
3895;SDS011;1963;48.804;8.358;2022-07-23T15:41:02;8.43;;;5.60;;
3895;SDS011;1963;48.804;8.358;2022-07-23T15:43:30;9.40;;;5.67;;
3895;SDS011;1963;48.804;8.358;2022-07-23T15:45:58;9.13;;;6.40;;
3895;SDS011;1963;48.804;8.358;2022-07-23T15:48:26;5.63;;;5.10;;
3895;SDS011;1963;48.804;8.358;2022-07-23T15:50:55;6.90;;;6.20;;
3895;SDS011;1963;48.804;8.358;2022-07-23T15:53:25;6.93;;;6.33;;
3895;SDS011;1963;48.804;8.358;2022-07-23T15:56:04;8.17;;;5.43;;
3895;SDS011;1963;48.804;8.358;2022-07-23T15:58:41;7.20;;;6.43;;
3895;SDS011;1963;48.804;8.358;2022-07-23T16:01:09;11.50;;;5.97;;
3895;SDS011;1963;48.804;8.358;2022-07-23T16:03:38;10.63;;;5.70;;
3895;SDS011;1963;48.804;8.358;2022-07-23T16:06:09;5.87;;;5.33;;
3895;SDS011;1963;48.804;8.358;2022-07-23T16:08:43;6.10;;;5.50;;
3895;SDS011;1963;48.804;8.358;2022-07-23T16:11:13;9.00;;;6.30;;